Sneek, Netherlands
Current Conditions -  °F | °C
As of 11:55 PM on Thursday 27 Nov 2014 (Local Time) from EHLW Reporting Station
Haze Haze  
Wind Chill: 32°   Ceiling: 4800
Heat Index: 39°   Visibility: 3mi
Dew Point: 37°   Wind: 13mph
Humidity: 93%   Direction: 110°ESE
Pressure: 29.77"   Gusts: NA
Location:  53.03°N, 5.66°E
Report Text: EHLW 272255Z AUTO 11011KT 5000 BR BKN048 OVC052 04/03 Q1008 WHT
Loading
Personal Weather Stations






























Interactive Weather Map New forecast layout! Learn more

10-Day Weather Forecast

Advertisements
Track Severe Weather on mobile